Hlavní strana
METAR-TAF:

METAR-TAF

Letiště :

Ciudad de Panamá, Panama

zeměpisná šířka: 08-59N, zeměpisná délka: 079-31W, výška: 13 m

Aktuální stav počasí

Zpráva byla vytvořena před 1 hodinou a 9 minutami, v 04:00 UTC
Severozápadní vítr 6 kt
Teplota 26°C
Vlhkost vzduchu 89%
Tlak 1011 hPa

METAR: MPMG 160400Z AUTO 32006KT //// R01///// // BKN078/// 26/24 Q1011

Čas: 00:09 (05:09 UTC)

Předpověď počasí

Zpráva byla vytvořena před 6 hodinami a 9 minutami, v 23:00 UTC
Předpověď platná od 16 v 00 UTC do 16 v 12 UTC
Severozápadní vítr 6 kt
Viditelnost 10 km a více
Skoro jasno ve výšce 1800 ft

TAF: MPMG 152300Z 1600/1612 32006KT 9999 FEW018

Stav a předpovědi počasí z více než 4 000 letišť (zprávy METAR a TAF).

Červené a žluté tečky na mapě představují dostupné meteorologické stanice.

Když kurzor umístíte na tečku, zobrazí se název stanice.

Pak kliknutím zobrazíte stav a předpověď počasí.

Chcete-li změnit mapu, kliknutím na zelené tlačítko se znaménkem +mapu přiblížíte, kliknutím na zelené tlačítko se znaménkem – mapu oddálíte a kliknutím na zelené šipky přejdete na sousední mapy.


METAR-TAF: